sensor_id;sensor_type;location;lat;lon;timestamp;P1;durP1;ratioP1;P2;durP2;ratioP2
54743;SDS011;40639;53.170;6.728;2023-05-10T00:01:25;10.63;;;7.20;;
54743;SDS011;40639;53.170;6.728;2023-05-10T00:03:51;10.30;;;8.02;;
54743;SDS011;40639;53.170;6.728;2023-05-10T00:06:17;10.98;;;8.07;;
54743;SDS011;40639;53.170;6.728;2023-05-10T00:08:44;11.30;;;8.30;;
54743;SDS011;40639;53.170;6.728;2023-05-10T00:11:10;11.82;;;7.85;;
54743;SDS011;40639;53.170;6.728;2023-05-10T00:13:36;9.23;;;7.03;;
54743;SDS011;40639;53.170;6.728;2023-05-10T00:16:03;9.27;;;7.10;;
54743;SDS011;40639;53.170;6.728;2023-05-10T00:18:29;7.50;;;5.28;;
54743;SDS011;40639;53.170;6.728;2023-05-10T00:20:55;8.20;;;5.72;;
54743;SDS011;40639;53.170;6.728;2023-05-10T00:23:21;7.47;;;5.57;;
54743;SDS011;40639;53.170;6.728;2023-05-10T00:25:47;7.20;;;4.70;;
54743;SDS011;40639;53.170;6.728;2023-05-10T00:28:14;7.60;;;5.25;;
54743;SDS011;40639;53.170;6.728;2023-05-10T00:30:40;7.35;;;5.40;;
54743;SDS011;40639;53.170;6.728;2023-05-10T00:33:06;8.55;;;5.60;;
54743;SDS011;40639;53.170;6.728;2023-05-10T00:35:32;7.18;;;5.10;;
54743;SDS011;40639;53.170;6.728;2023-05-10T00:37:58;8.20;;;5.80;;
54743;SDS011;40639;53.170;6.728;2023-05-10T00:40:25;7.72;;;5.60;;
54743;SDS011;40639;53.170;6.728;2023-05-10T00:42:51;8.55;;;5.93;;
54743;SDS011;40639;53.170;6.728;2023-05-10T00:45:17;8.85;;;5.97;;
54743;SDS011;40639;53.170;6.728;2023-05-10T00:47:44;9.02;;;5.85;;
54743;SDS011;40639;53.170;6.728;2023-05-10T00:50:10;10.20;;;5.88;;
54743;SDS011;40639;53.170;6.728;2023-05-10T00:52:36;8.52;;;5.78;;
54743;SDS011;40639;53.170;6.728;2023-05-10T00:55:02;8.15;;;6.00;;
54743;SDS011;40639;53.170;6.728;2023-05-10T00:57:29;9.32;;;6.20;;
54743;SDS011;40639;53.170;6.728;2023-05-10T00:59:55;7.95;;;6.00;;
54743;SDS011;40639;53.170;6.728;2023-05-10T01:02:21;10.02;;;5.97;;
54743;SDS011;40639;53.170;6.728;2023-05-10T01:04:48;7.72;;;5.72;;
54743;SDS011;40639;53.170;6.728;2023-05-10T01:07:14;9.13;;;6.35;;
54743;SDS011;40639;53.170;6.728;2023-05-10T01:09:43;9.30;;;6.65;;
54743;SDS011;40639;53.170;6.728;2023-05-10T01:12:10;8.82;;;6.07;;
54743;SDS011;40639;53.170;6.728;2023-05-10T01:14:36;10.98;;;6.78;;
54743;SDS011;40639;53.170;6.728;2023-05-10T01:17:02;10.50;;;6.70;;
54743;SDS011;40639;53.170;6.728;2023-05-10T01:19:29;10.68;;;6.93;;
54743;SDS011;40639;53.170;6.728;2023-05-10T01:35:26;11.82;;;7.05;;
54743;SDS011;40639;53.170;6.728;2023-05-10T01:42:49;9.25;;;5.70;;
54743;SDS011;40639;53.170;6.728;2023-05-10T01:45:30;7.72;;;5.30;;
54743;SDS011;40639;53.170;6.728;2023-05-10T01:48:07;9.25;;;5.80;;
54743;SDS011;40639;53.170;6.728;2023-05-10T01:50:35;9.52;;;6.05;;
54743;SDS011;40639;53.170;6.728;2023-05-10T01:53:01;8.68;;;6.15;;
54743;SDS011;40639;53.170;6.728;2023-05-10T01:55:29;8.93;;;6.15;;
54743;SDS011;40639;53.170;6.728;2023-05-10T01:58:03;11.02;;;6.80;;
54743;SDS011;40639;53.170;6.728;2023-05-10T02:00:30;9.95;;;6.50;;
54743;SDS011;40639;53.170;6.728;2023-05-10T02:02:56;8.77;;;5.97;;
54743;SDS011;40639;53.170;6.728;2023-05-10T02:05:23;10.88;;;6.80;;
54743;SDS011;40639;53.170;6.728;2023-05-10T02:07:50;9.82;;;6.75;;
54743;SDS011;40639;53.170;6.728;2023-05-10T02:10:17;9.82;;;6.88;;
54743;SDS011;40639;53.170;6.728;2023-05-10T02:12:44;10.43;;;6.55;;
54743;SDS011;40639;53.170;6.728;2023-05-10T02:15:11;10.38;;;6.78;;
54743;SDS011;40639;53.170;6.728;2023-05-10T02:17:38;9.85;;;6.35;;
54743;SDS011;40639;53.170;6.728;2023-05-10T02:20:05;8.95;;;6.32;;
54743;SDS011;40639;53.170;6.728;2023-05-10T02:22:37;9.70;;;6.45;;
54743;SDS011;40639;53.170;6.728;2023-05-10T02:25:04;11.23;;;7.47;;
54743;SDS011;40639;53.170;6.728;2023-05-10T02:27:32;9.73;;;6.53;;
54743;SDS011;40639;53.170;6.728;2023-05-10T02:29:59;11.38;;;7.03;;
54743;SDS011;40639;53.170;6.728;2023-05-10T02:32:26;9.40;;;6.88;;
54743;SDS011;40639;53.170;6.728;2023-05-10T02:34:53;10.23;;;6.80;;
54743;SDS011;40639;53.170;6.728;2023-05-10T02:37:20;10.60;;;7.00;;
54743;SDS011;40639;53.170;6.728;2023-05-10T02:39:50;10.63;;;7.25;;
54743;SDS011;40639;53.170;6.728;2023-05-10T02:42:18;12.85;;;7.00;;
54743;SDS011;40639;53.170;6.728;2023-05-10T02:44:45;10.25;;;6.95;;
54743;SDS011;40639;53.170;6.728;2023-05-10T02:47:13;10.85;;;6.75;;
54743;SDS011;40639;53.170;6.728;2023-05-10T02:49:39;10.38;;;6.80;;
54743;SDS011;40639;53.170;6.728;2023-05-10T02:52:05;10.52;;;6.78;;
54743;SDS011;40639;53.170;6.728;2023-05-10T02:54:35;11.20;;;6.55;;
54743;SDS011;40639;53.170;6.728;2023-05-10T02:57:04;10.35;;;6.13;;
54743;SDS011;40639;53.170;6.728;2023-05-10T02:59:31;11.10;;;6.47;;
54743;SDS011;40639;53.170;6.728;2023-05-10T03:01:58;11.25;;;7.18;;
54743;SDS011;40639;53.170;6.728;2023-05-10T03:04:25;12.48;;;7.32;;
54743;SDS011;40639;53.170;6.728;2023-05-10T03:06:54;10.27;;;6.88;;
54743;SDS011;40639;53.170;6.728;2023-05-10T03:09:20;10.65;;;6.93;;
54743;SDS011;40639;53.170;6.728;2023-05-10T03:17:31;13.18;;;8.27;;
54743;SDS011;40639;53.170;6.728;2023-05-10T03:20:12;11.25;;;7.57;;
54743;SDS011;40639;53.170;6.728;2023-05-10T03:22:45;12.85;;;7.85;;
54743;SDS011;40639;53.170;6.728;2023-05-10T03:25:12;13.75;;;8.57;;
54743;SDS011;40639;53.170;6.728;2023-05-10T03:27:41;15.15;;;8.52;;
54743;SDS011;40639;53.170;6.728;2023-05-10T03:30:08;14.13;;;8.93;;
54743;SDS011;40639;53.170;6.728;2023-05-10T03:32:36;14.68;;;9.63;;
54743;SDS011;40639;53.170;6.728;2023-05-10T03:35:09;15.35;;;8.90;;
54743;SDS011;40639;53.170;6.728;2023-05-10T03:37:35;16.70;;;9.13;;
54743;SDS011;40639;53.170;6.728;2023-05-10T03:40:02;16.30;;;9.55;;
54743;SDS011;40639;53.170;6.728;2023-05-10T03:42:28;16.08;;;9.38;;
54743;SDS011;40639;53.170;6.728;2023-05-10T03:44:54;16.40;;;9.27;;
54743;SDS011;40639;53.170;6.728;2023-05-10T03:47:20;18.20;;;10.07;;
54743;SDS011;40639;53.170;6.728;2023-05-10T03:49:47;17.00;;;10.07;;
54743;SDS011;40639;53.170;6.728;2023-05-10T03:52:13;17.30;;;10.23;;
54743;SDS011;40639;53.170;6.728;2023-05-10T03:54:39;16.77;;;10.13;;
54743;SDS011;40639;53.170;6.728;2023-05-10T03:57:05;17.67;;;10.43;;
54743;SDS011;40639;53.170;6.728;2023-05-10T03:59:31;21.30;;;11.90;;
54743;SDS011;40639;53.170;6.728;2023-05-10T04:01:57;20.85;;;11.65;;
54743;SDS011;40639;53.170;6.728;2023-05-10T04:04:23;20.50;;;11.30;;
54743;SDS011;40639;53.170;6.728;2023-05-10T04:06:49;20.00;;;11.07;;
54743;SDS011;40639;53.170;6.728;2023-05-10T04:09:16;21.10;;;11.05;;
54743;SDS011;40639;53.170;6.728;2023-05-10T04:11:42;24.75;;;11.30;;
54743;SDS011;40639;53.170;6.728;2023-05-10T04:14:08;20.17;;;11.10;;
54743;SDS011;40639;53.170;6.728;2023-05-10T04:16:35;21.27;;;11.45;;
54743;SDS011;40639;53.170;6.728;2023-05-10T04:19:01;20.80;;;11.93;;
54743;SDS011;40639;53.170;6.728;2023-05-10T04:21:27;20.98;;;11.90;;
54743;SDS011;40639;53.170;6.728;2023-05-10T04:23:53;25.02;;;12.85;;
54743;SDS011;40639;53.170;6.728;2023-05-10T04:26:19;19.88;;;10.98;;
54743;SDS011;40639;53.170;6.728;2023-05-10T04:28:47;25.33;;;12.23;;
54743;SDS011;40639;53.170;6.728;2023-05-10T04:31:13;20.77;;;10.65;;
54743;SDS011;40639;53.170;6.728;2023-05-10T04:33:39;20.65;;;10.65;;
54743;SDS011;40639;53.170;6.728;2023-05-10T04:36:05;20.60;;;11.23;;
54743;SDS011;40639;53.170;6.728;2023-05-10T04:38:32;20.00;;;11.05;;
54743;SDS011;40639;53.170;6.728;2023-05-10T04:41:07;19.92;;;10.90;;
54743;SDS011;40639;53.170;6.728;2023-05-10T04:43:33;21.25;;;10.75;;
54743;SDS011;40639;53.170;6.728;2023-05-10T04:46:00;18.33;;;11.10;;
54743;SDS011;40639;53.170;6.728;2023-05-10T04:48:26;19.45;;;10.15;;
54743;SDS011;40639;53.170;6.728;2023-05-10T04:50:52;18.25;;;9.90;;
54743;SDS011;40639;53.170;6.728;2023-05-10T04:53:19;16.33;;;9.40;;
54743;SDS011;40639;53.170;6.728;2023-05-10T04:55:45;17.50;;;9.20;;
54743;SDS011;40639;53.170;6.728;2023-05-10T04:58:11;19.13;;;9.45;;
54743;SDS011;40639;53.170;6.728;2023-05-10T05:00:38;18.73;;;10.18;;
54743;SDS011;40639;53.170;6.728;2023-05-10T05:03:04;15.88;;;9.00;;
54743;SDS011;40639;53.170;6.728;2023-05-10T05:05:30;16.52;;;8.38;;
54743;SDS011;40639;53.170;6.728;2023-05-10T05:07:56;14.50;;;7.88;;
54743;SDS011;40639;53.170;6.728;2023-05-10T05:10:22;15.02;;;8.00;;
54743;SDS011;40639;53.170;6.728;2023-05-10T05:12:48;14.13;;;7.95;;
54743;SDS011;40639;53.170;6.728;2023-05-10T05:15:14;10.20;;;5.90;;
54743;SDS011;40639;53.170;6.728;2023-05-10T05:17:41;8.27;;;5.20;;
54743;SDS011;40639;53.170;6.728;2023-05-10T05:20:08;8.45;;;4.70;;
54743;SDS011;40639;53.170;6.728;2023-05-10T05:22:37;6.38;;;4.20;;
54743;SDS011;40639;53.170;6.728;2023-05-10T05:25:04;5.68;;;3.75;;
54743;SDS011;40639;53.170;6.728;2023-05-10T05:27:30;4.28;;;2.60;;
54743;SDS011;40639;53.170;6.728;2023-05-10T05:29:57;4.10;;;2.67;;
54743;SDS011;40639;53.170;6.728;2023-05-10T05:32:23;5.53;;;2.72;;
54743;SDS011;40639;53.170;6.728;2023-05-10T05:34:49;5.22;;;3.10;;
54743;SDS011;40639;53.170;6.728;2023-05-10T05:37:16;4.65;;;3.40;;
54743;SDS011;40639;53.170;6.728;2023-05-10T05:39:42;5.72;;;3.00;;
54743;SDS011;40639;53.170;6.728;2023-05-10T05:42:09;6.40;;;2.90;;
54743;SDS011;40639;53.170;6.728;2023-05-10T05:44:35;5.05;;;2.90;;
54743;SDS011;40639;53.170;6.728;2023-05-10T05:47:02;4.38;;;2.80;;
54743;SDS011;40639;53.170;6.728;2023-05-10T05:49:28;3.92;;;2.58;;
54743;SDS011;40639;53.170;6.728;2023-05-10T05:51:54;3.33;;;2.67;;
54743;SDS011;40639;53.170;6.728;2023-05-10T05:54:20;4.70;;;3.08;;
54743;SDS011;40639;53.170;6.728;2023-05-10T05:56:46;5.75;;;2.75;;
54743;SDS011;40639;53.170;6.728;2023-05-10T05:59:13;4.43;;;2.90;;
54743;SDS011;40639;53.170;6.728;2023-05-10T06:01:39;4.72;;;3.42;;
54743;SDS011;40639;53.170;6.728;2023-05-10T06:04:05;6.65;;;3.38;;
54743;SDS011;40639;53.170;6.728;2023-05-10T06:06:31;6.20;;;3.05;;
54743;SDS011;40639;53.170;6.728;2023-05-10T06:08:57;5.35;;;3.40;;
54743;SDS011;40639;53.170;6.728;2023-05-10T06:11:23;5.07;;;2.90;;
54743;SDS011;40639;53.170;6.728;2023-05-10T06:13:50;8.80;;;3.20;;
54743;SDS011;40639;53.170;6.728;2023-05-10T06:16:16;4.15;;;3.05;;
54743;SDS011;40639;53.170;6.728;2023-05-10T06:18:42;5.90;;;3.10;;
54743;SDS011;40639;53.170;6.728;2023-05-10T06:21:08;5.57;;;3.30;;
54743;SDS011;40639;53.170;6.728;2023-05-10T06:23:34;6.22;;;2.92;;
54743;SDS011;40639;53.170;6.728;2023-05-10T06:26:01;5.47;;;3.20;;
54743;SDS011;40639;53.170;6.728;2023-05-10T06:28:27;4.35;;;2.75;;
54743;SDS011;40639;53.170;6.728;2023-05-10T06:30:53;5.90;;;3.28;;
54743;SDS011;40639;53.170;6.728;2023-05-10T06:33:19;4.50;;;2.67;;
54743;SDS011;40639;53.170;6.728;2023-05-10T06:35:45;4.40;;;2.53;;
54743;SDS011;40639;53.170;6.728;2023-05-10T06:38:11;5.28;;;2.90;;
54743;SDS011;40639;53.170;6.728;2023-05-10T06:40:40;4.18;;;2.42;;
54743;SDS011;40639;53.170;6.728;2023-05-10T06:43:07;4.47;;;1.90;;
54743;SDS011;40639;53.170;6.728;2023-05-10T06:45:33;5.20;;;2.10;;
54743;SDS011;40639;53.170;6.728;2023-05-10T06:47:59;3.17;;;1.60;;
54743;SDS011;40639;53.170;6.728;2023-05-10T06:50:26;3.08;;;1.80;;
54743;SDS011;40639;53.170;6.728;2023-05-10T06:52:52;2.50;;;1.30;;
54743;SDS011;40639;53.170;6.728;2023-05-10T06:55:19;2.50;;;1.42;;
54743;SDS011;40639;53.170;6.728;2023-05-10T06:57:45;3.25;;;1.70;;
54743;SDS011;40639;53.170;6.728;2023-05-10T07:00:12;3.88;;;1.90;;
54743;SDS011;40639;53.170;6.728;2023-05-10T07:02:38;5.20;;;3.10;;
54743;SDS011;40639;53.170;6.728;2023-05-10T07:05:05;6.05;;;3.10;;
54743;SDS011;40639;53.170;6.728;2023-05-10T07:07:31;7.57;;;3.75;;
54743;SDS011;40639;53.170;6.728;2023-05-10T07:09:57;6.80;;;4.10;;
54743;SDS011;40639;53.170;6.728;2023-05-10T07:12:24;6.70;;;3.72;;
54743;SDS011;40639;53.170;6.728;2023-05-10T07:14:50;7.57;;;4.18;;
54743;SDS011;40639;53.170;6.728;2023-05-10T07:17:16;7.47;;;4.35;;
54743;SDS011;40639;53.170;6.728;2023-05-10T07:19:42;5.63;;;3.60;;
54743;SDS011;40639;53.170;6.728;2023-05-10T07:22:08;5.80;;;3.30;;
54743;SDS011;40639;53.170;6.728;2023-05-10T07:24:34;6.43;;;3.00;;
54743;SDS011;40639;53.170;6.728;2023-05-10T07:27:01;5.43;;;3.00;;
54743;SDS011;40639;53.170;6.728;2023-05-10T07:29:27;6.55;;;2.97;;
54743;SDS011;40639;53.170;6.728;2023-05-10T07:31:53;6.90;;;3.42;;
54743;SDS011;40639;53.170;6.728;2023-05-10T07:34:19;6.72;;;3.15;;
54743;SDS011;40639;53.170;6.728;2023-05-10T07:36:46;8.55;;;3.45;;
54743;SDS011;40639;53.170;6.728;2023-05-10T07:39:12;7.97;;;3.90;;
54743;SDS011;40639;53.170;6.728;2023-05-10T07:41:38;6.13;;;3.67;;
54743;SDS011;40639;53.170;6.728;2023-05-10T07:44:04;6.90;;;3.88;;
54743;SDS011;40639;53.170;6.728;2023-05-10T07:46:30;5.72;;;3.80;;
54743;SDS011;40639;53.170;6.728;2023-05-10T07:48:57;4.95;;;3.03;;
54743;SDS011;40639;53.170;6.728;2023-05-10T07:51:23;5.18;;;2.92;;
54743;SDS011;40639;53.170;6.728;2023-05-10T07:53:52;5.03;;;3.20;;
54743;SDS011;40639;53.170;6.728;2023-05-10T07:56:19;4.80;;;3.17;;
54743;SDS011;40639;53.170;6.728;2023-05-10T07:58:46;5.22;;;3.28;;
54743;SDS011;40639;53.170;6.728;2023-05-10T08:01:15;4.15;;;2.85;;
54743;SDS011;40639;53.170;6.728;2023-05-10T08:03:41;4.88;;;3.10;;
54743;SDS011;40639;53.170;6.728;2023-05-10T08:06:07;4.07;;;2.72;;
54743;SDS011;40639;53.170;6.728;2023-05-10T08:08:33;4.28;;;2.88;;
54743;SDS011;40639;53.170;6.728;2023-05-10T08:10:59;4.13;;;2.85;;
54743;SDS011;40639;53.170;6.728;2023-05-10T08:13:26;4.00;;;2.90;;
54743;SDS011;40639;53.170;6.728;2023-05-10T08:15:52;5.13;;;3.38;;
54743;SDS011;40639;53.170;6.728;2023-05-10T08:18:18;5.30;;;2.38;;
54743;SDS011;40639;53.170;6.728;2023-05-10T08:20:44;2.65;;;2.03;;
54743;SDS011;40639;53.170;6.728;2023-05-10T08:23:12;4.65;;;2.45;;
54743;SDS011;40639;53.170;6.728;2023-05-10T08:25:38;2.92;;;2.40;;
54743;SDS011;40639;53.170;6.728;2023-05-10T08:28:04;4.13;;;2.90;;
54743;SDS011;40639;53.170;6.728;2023-05-10T08:30:31;3.72;;;2.60;;
54743;SDS011;40639;53.170;6.728;2023-05-10T08:32:57;4.65;;;3.28;;
54743;SDS011;40639;53.170;6.728;2023-05-10T08:35:23;5.45;;;3.50;;
54743;SDS011;40639;53.170;6.728;2023-05-10T08:37:50;6.72;;;4.47;;
54743;SDS011;40639;53.170;6.728;2023-05-10T08:40:16;5.40;;;3.80;;
54743;SDS011;40639;53.170;6.728;2023-05-10T08:42:49;6.13;;;4.30;;
54743;SDS011;40639;53.170;6.728;2023-05-10T08:45:17;7.72;;;4.63;;
54743;SDS011;40639;53.170;6.728;2023-05-10T08:47:44;7.47;;;4.45;;
54743;SDS011;40639;53.170;6.728;2023-05-10T08:50:11;6.80;;;4.40;;
54743;SDS011;40639;53.170;6.728;2023-05-10T08:52:37;8.10;;;4.30;;
54743;SDS011;40639;53.170;6.728;2023-05-10T08:55:05;6.95;;;4.43;;
54743;SDS011;40639;53.170;6.728;2023-05-10T08:57:31;8.70;;;4.20;;
54743;SDS011;40639;53.170;6.728;2023-05-10T08:59:57;9.20;;;5.10;;
54743;SDS011;40639;53.170;6.728;2023-05-10T09:02:24;8.50;;;4.72;;
54743;SDS011;40639;53.170;6.728;2023-05-10T09:04:51;6.65;;;4.32;;
54743;SDS011;40639;53.170;6.728;2023-05-10T09:07:17;6.60;;;4.38;;
54743;SDS011;40639;53.170;6.728;2023-05-10T09:09:43;7.60;;;4.60;;
54743;SDS011;40639;53.170;6.728;2023-05-10T09:12:09;7.53;;;4.05;;
54743;SDS011;40639;53.170;6.728;2023-05-10T09:14:36;6.38;;;3.85;;
54743;SDS011;40639;53.170;6.728;2023-05-10T09:17:04;6.22;;;4.20;;
54743;SDS011;40639;53.170;6.728;2023-05-10T09:19:30;5.65;;;3.85;;
54743;SDS011;40639;53.170;6.728;2023-05-10T09:21:56;6.00;;;4.20;;
54743;SDS011;40639;53.170;6.728;2023-05-10T09:24:26;5.85;;;3.95;;
54743;SDS011;40639;53.170;6.728;2023-05-10T09:26:52;6.32;;;4.15;;
54743;SDS011;40639;53.170;6.728;2023-05-10T09:29:18;5.85;;;3.70;;
54743;SDS011;40639;53.170;6.728;2023-05-10T09:31:48;4.65;;;3.42;;
54743;SDS011;40639;53.170;6.728;2023-05-10T09:34:20;4.60;;;3.40;;
54743;SDS011;40639;53.170;6.728;2023-05-10T09:36:52;5.72;;;3.60;;
54743;SDS011;40639;53.170;6.728;2023-05-10T09:39:19;5.55;;;3.25;;
54743;SDS011;40639;53.170;6.728;2023-05-10T09:41:45;5.65;;;3.58;;
54743;SDS011;40639;53.170;6.728;2023-05-10T09:44:11;5.95;;;4.05;;
54743;SDS011;40639;53.170;6.728;2023-05-10T09:46:48;4.93;;;3.70;;
54743;SDS011;40639;53.170;6.728;2023-05-10T09:49:14;5.65;;;3.90;;
54743;SDS011;40639;53.170;6.728;2023-05-10T09:52:01;8.07;;;4.20;;
54743;SDS011;40639;53.170;6.728;2023-05-10T09:54:37;6.22;;;3.90;;
54743;SDS011;40639;53.170;6.728;2023-05-10T09:57:03;7.55;;;4.18;;
54743;SDS011;40639;53.170;6.728;2023-05-10T09:59:30;6.80;;;4.40;;
54743;SDS011;40639;53.170;6.728;2023-05-10T10:01:56;7.00;;;4.20;;
54743;SDS011;40639;53.170;6.728;2023-05-10T10:04:23;6.50;;;3.83;;
54743;SDS011;40639;53.170;6.728;2023-05-10T10:06:59;5.55;;;3.33;;
54743;SDS011;40639;53.170;6.728;2023-05-10T10:11:51;6.23;;;3.30;;
54743;SDS011;40639;53.170;6.728;2023-05-10T10:14:21;5.90;;;3.13;;
54743;SDS011;40639;53.170;6.728;2023-05-10T10:16:48;4.72;;;3.05;;
54743;SDS011;40639;53.170;6.728;2023-05-10T10:19:15;6.13;;;3.53;;
54743;SDS011;40639;53.170;6.728;2023-05-10T10:21:41;6.25;;;3.45;;
54743;SDS011;40639;53.170;6.728;2023-05-10T10:24:07;4.60;;;3.10;;
54743;SDS011;40639;53.170;6.728;2023-05-10T10:26:34;5.55;;;3.20;;
54743;SDS011;40639;53.170;6.728;2023-05-10T10:29:13;5.75;;;3.08;;
54743;SDS011;40639;53.170;6.728;2023-05-10T10:31:45;5.53;;;3.10;;
54743;SDS011;40639;53.170;6.728;2023-05-10T10:34:28;7.43;;;3.72;;
54743;SDS011;40639;53.170;6.728;2023-05-10T10:36:55;4.97;;;3.03;;
54743;SDS011;40639;53.170;6.728;2023-05-10T10:39:22;5.65;;;3.63;;
54743;SDS011;40639;53.170;6.728;2023-05-10T10:41:54;6.13;;;3.40;;
54743;SDS011;40639;53.170;6.728;2023-05-10T10:44:24;5.88;;;3.60;;
54743;SDS011;40639;53.170;6.728;2023-05-10T10:47:03;7.78;;;4.05;;
54743;SDS011;40639;53.170;6.728;2023-05-10T10:49:50;5.35;;;3.83;;
54743;SDS011;40639;53.170;6.728;2023-05-10T10:52:35;5.57;;;3.58;;
54743;SDS011;40639;53.170;6.728;2023-05-10T10:57:53;7.97;;;3.55;;
54743;SDS011;40639;53.170;6.728;2023-05-10T11:02:47;6.10;;;3.60;;
54743;SDS011;40639;53.170;6.728;2023-05-10T11:11:06;4.53;;;3.20;;
54743;SDS011;40639;53.170;6.728;2023-05-10T11:15:59;3.20;;;2.28;;
54743;SDS011;40639;53.170;6.728;2023-05-10T11:18:26;4.18;;;2.70;;
54743;SDS011;40639;53.170;6.728;2023-05-10T11:21:00;4.50;;;2.90;;
54743;SDS011;40639;53.170;6.728;2023-05-10T11:23:32;6.45;;;3.40;;
54743;SDS011;40639;53.170;6.728;2023-05-10T11:25:59;5.50;;;3.25;;
54743;SDS011;40639;53.170;6.728;2023-05-10T11:28:29;6.70;;;3.95;;
54743;SDS011;40639;53.170;6.728;2023-05-10T11:30:56;6.85;;;4.05;;
54743;SDS011;40639;53.170;6.728;2023-05-10T11:33:22;6.20;;;4.00;;
54743;SDS011;40639;53.170;6.728;2023-05-10T11:35:48;7.30;;;4.07;;
54743;SDS011;40639;53.170;6.728;2023-05-10T11:38:15;6.28;;;4.40;;
54743;SDS011;40639;53.170;6.728;2023-05-10T11:40:41;6.55;;;4.13;;
54743;SDS011;40639;53.170;6.728;2023-05-10T11:43:08;9.45;;;4.50;;
54743;SDS011;40639;53.170;6.728;2023-05-10T11:45:35;7.47;;;4.53;;
54743;SDS011;40639;53.170;6.728;2023-05-10T11:48:02;6.50;;;4.07;;
54743;SDS011;40639;53.170;6.728;2023-05-10T11:50:28;7.10;;;4.30;;
54743;SDS011;40639;53.170;6.728;2023-05-10T11:52:55;5.50;;;3.92;;
54743;SDS011;40639;53.170;6.728;2023-05-10T11:55:21;7.60;;;4.68;;
54743;SDS011;40639;53.170;6.728;2023-05-10T11:57:47;7.00;;;4.95;;
54743;SDS011;40639;53.170;6.728;2023-05-10T12:00:17;7.43;;;4.75;;
54743;SDS011;40639;53.170;6.728;2023-05-10T12:02:43;6.90;;;4.43;;
54743;SDS011;40639;53.170;6.728;2023-05-10T12:05:09;7.20;;;4.72;;
54743;SDS011;40639;53.170;6.728;2023-05-10T12:07:35;8.38;;;4.30;;
54743;SDS011;40639;53.170;6.728;2023-05-10T12:10:02;7.68;;;4.97;;
54743;SDS011;40639;53.170;6.728;2023-05-10T12:12:41;8.50;;;4.60;;
54743;SDS011;40639;53.170;6.728;2023-05-10T12:15:11;6.95;;;4.38;;
54743;SDS011;40639;53.170;6.728;2023-05-10T12:17:38;9.15;;;5.00;;
54743;SDS011;40639;53.170;6.728;2023-05-10T12:20:15;7.72;;;4.43;;
54743;SDS011;40639;53.170;6.728;2023-05-10T12:22:51;10.07;;;5.72;;
54743;SDS011;40639;53.170;6.728;2023-05-10T12:25:18;7.88;;;5.05;;
54743;SDS011;40639;53.170;6.728;2023-05-10T12:27:51;7.75;;;4.95;;
54743;SDS011;40639;53.170;6.728;2023-05-10T12:30:21;8.60;;;4.97;;
54743;SDS011;40639;53.170;6.728;2023-05-10T12:32:47;8.60;;;5.70;;
54743;SDS011;40639;53.170;6.728;2023-05-10T12:35:13;9.13;;;5.22;;
54743;SDS011;40639;53.170;6.728;2023-05-10T12:37:41;7.22;;;4.65;;
54743;SDS011;40639;53.170;6.728;2023-05-10T12:40:08;8.20;;;4.93;;
54743;SDS011;40639;53.170;6.728;2023-05-10T12:42:35;10.90;;;5.85;;
54743;SDS011;40639;53.170;6.728;2023-05-10T12:45:02;10.60;;;5.93;;
54743;SDS011;40639;53.170;6.728;2023-05-10T12:47:28;10.15;;;5.40;;
54743;SDS011;40639;53.170;6.728;2023-05-10T12:49:55;8.95;;;4.90;;
54743;SDS011;40639;53.170;6.728;2023-05-10T12:52:21;8.88;;;5.43;;
54743;SDS011;40639;53.170;6.728;2023-05-10T12:54:47;8.30;;;5.53;;
54743;SDS011;40639;53.170;6.728;2023-05-10T12:57:14;9.32;;;5.70;;
54743;SDS011;40639;53.170;6.728;2023-05-10T12:59:40;9.60;;;5.32;;
54743;SDS011;40639;53.170;6.728;2023-05-10T13:02:06;10.13;;;5.63;;
54743;SDS011;40639;53.170;6.728;2023-05-10T13:04:33;10.63;;;5.90;;
54743;SDS011;40639;53.170;6.728;2023-05-10T13:07:08;10.23;;;5.40;;
54743;SDS011;40639;53.170;6.728;2023-05-10T13:09:34;9.93;;;4.95;;
54743;SDS011;40639;53.170;6.728;2023-05-10T13:12:00;8.07;;;5.07;;
54743;SDS011;40639;53.170;6.728;2023-05-10T13:14:27;9.65;;;5.38;;
54743;SDS011;40639;53.170;6.728;2023-05-10T13:16:53;10.95;;;6.47;;
54743;SDS011;40639;53.170;6.728;2023-05-10T13:19:19;9.73;;;6.05;;
54743;SDS011;40639;53.170;6.728;2023-05-10T13:21:45;11.20;;;6.57;;
54743;SDS011;40639;53.170;6.728;2023-05-10T13:24:12;10.63;;;5.60;;
54743;SDS011;40639;53.170;6.728;2023-05-10T13:26:39;9.25;;;5.40;;
54743;SDS011;40639;53.170;6.728;2023-05-10T13:29:06;10.82;;;5.45;;
54743;SDS011;40639;53.170;6.728;2023-05-10T13:31:35;8.50;;;4.75;;
54743;SDS011;40639;53.170;6.728;2023-05-10T13:34:02;9.50;;;5.20;;
54743;SDS011;40639;53.170;6.728;2023-05-10T13:36:28;9.60;;;5.43;;
54743;SDS011;40639;53.170;6.728;2023-05-10T13:38:54;8.43;;;5.00;;
54743;SDS011;40639;53.170;6.728;2023-05-10T13:41:21;8.07;;;5.10;;
54743;SDS011;40639;53.170;6.728;2023-05-10T13:43:47;9.48;;;5.18;;
54743;SDS011;40639;53.170;6.728;2023-05-10T13:46:14;8.68;;;5.18;;
54743;SDS011;40639;53.170;6.728;2023-05-10T13:48:40;12.23;;;6.35;;
54743;SDS011;40639;53.170;6.728;2023-05-10T13:51:06;10.18;;;6.28;;
54743;SDS011;40639;53.170;6.728;2023-05-10T13:53:32;10.82;;;6.45;;
54743;SDS011;40639;53.170;6.728;2023-05-10T13:55:58;10.80;;;6.72;;
54743;SDS011;40639;53.170;6.728;2023-05-10T13:58:24;9.57;;;5.90;;
54743;SDS011;40639;53.170;6.728;2023-05-10T14:00:50;11.00;;;6.55;;
54743;SDS011;40639;53.170;6.728;2023-05-10T14:03:17;11.02;;;6.47;;
54743;SDS011;40639;53.170;6.728;2023-05-10T14:05:43;10.45;;;6.22;;
54743;SDS011;40639;53.170;6.728;2023-05-10T14:08:10;8.70;;;5.63;;
54743;SDS011;40639;53.170;6.728;2023-05-10T14:10:38;10.13;;;6.20;;
54743;SDS011;40639;53.170;6.728;2023-05-10T14:13:04;9.60;;;5.75;;
54743;SDS011;40639;53.170;6.728;2023-05-10T14:15:31;10.68;;;6.18;;
54743;SDS011;40639;53.170;6.728;2023-05-10T14:17:57;10.85;;;6.30;;
54743;SDS011;40639;53.170;6.728;2023-05-10T14:20:23;11.65;;;6.18;;
54743;SDS011;40639;53.170;6.728;2023-05-10T14:22:49;11.25;;;6.63;;
54743;SDS011;40639;53.170;6.728;2023-05-10T14:25:16;9.48;;;6.13;;
54743;SDS011;40639;53.170;6.728;2023-05-10T14:27:42;10.05;;;5.88;;
54743;SDS011;40639;53.170;6.728;2023-05-10T14:30:08;9.27;;;5.38;;
54743;SDS011;40639;53.170;6.728;2023-05-10T14:32:34;9.05;;;5.50;;
54743;SDS011;40639;53.170;6.728;2023-05-10T14:35:01;9.30;;;5.55;;
54743;SDS011;40639;53.170;6.728;2023-05-10T14:37:28;9.52;;;5.75;;
54743;SDS011;40639;53.170;6.728;2023-05-10T14:39:54;10.70;;;6.32;;
54743;SDS011;40639;53.170;6.728;2023-05-10T14:42:20;10.57;;;5.82;;
54743;SDS011;40639;53.170;6.728;2023-05-10T14:44:46;9.45;;;5.90;;
54743;SDS011;40639;53.170;6.728;2023-05-10T14:47:12;10.07;;;6.38;;
54743;SDS011;40639;53.170;6.728;2023-05-10T14:49:39;10.38;;;6.10;;
54743;SDS011;40639;53.170;6.728;2023-05-10T14:52:06;9.35;;;6.18;;
54743;SDS011;40639;53.170;6.728;2023-05-10T14:54:35;9.63;;;6.20;;
54743;SDS011;40639;53.170;6.728;2023-05-10T14:57:04;10.40;;;5.93;;
54743;SDS011;40639;53.170;6.728;2023-05-10T14:59:31;9.68;;;5.90;;
54743;SDS011;40639;53.170;6.728;2023-05-10T15:02:06;10.10;;;5.55;;
54743;SDS011;40639;53.170;6.728;2023-05-10T15:04:33;11.98;;;6.38;;
54743;SDS011;40639;53.170;6.728;2023-05-10T15:07:00;9.10;;;5.80;;
54743;SDS011;40639;53.170;6.728;2023-05-10T15:09:26;9.07;;;5.70;;
54743;SDS011;40639;53.170;6.728;2023-05-10T15:11:53;9.40;;;5.70;;
54743;SDS011;40639;53.170;6.728;2023-05-10T15:14:28;8.52;;;5.53;;
54743;SDS011;40639;53.170;6.728;2023-05-10T15:16:55;8.40;;;5.88;;
54743;SDS011;40639;53.170;6.728;2023-05-10T15:19:21;10.45;;;6.07;;
54743;SDS011;40639;53.170;6.728;2023-05-10T15:21:47;9.55;;;5.70;;
54743;SDS011;40639;53.170;6.728;2023-05-10T15:24:13;9.23;;;5.68;;